Time;durP1;ratioP1;P1;durP2;ratioP2;P2;SDS_P1;SDS_P2;PMS_P1;PMS_P2;Temp;Humidity;BMP_temperature;BMP_pressure;BME280_temperature;BME280_humidity;BME280_pressure;Samples;Min_cycle;Max_cycle;Signal;HPM_P1;HPM_P2
2023/03/26 00:01:18;;;;;;;5.80;1.00;;;5.40;99.90;;;;;;5085205;28;20044;-53
2023/03/26 00:03:45;;;;;;;0.65;0.52;;;5.50;99.90;;;;;;5085638;28;20404;-55
2023/03/26 00:06:15;;;;;;;0.57;0.38;;;5.40;99.90;;;;;;5083163;28;20626;-49
2023/03/26 00:08:44;;;;;;;1.40;0.50;;;5.40;99.90;;;;;;5085393;28;20105;-49
2023/03/26 00:11:14;;;;;;;1.17;0.40;;;5.40;99.90;;;;;;5086507;28;20089;-52
2023/03/26 00:13:42;;;;;;;3.55;1.00;;;5.50;99.90;;;;;;5086725;28;20048;-49
2023/03/26 00:16:15;;;;;;;1.95;0.75;;;5.50;99.90;;;;;;5086129;28;20058;-49
2023/03/26 00:18:42;;;;;;;4.55;1.15;;;5.60;99.90;;;;;;5089759;28;20063;-50
2023/03/26 00:21:15;;;;;;;4.35;1.55;;;5.60;99.90;;;;;;5090553;28;20070;-48
2023/03/26 00:23:43;;;;;;;4.50;1.83;;;5.60;99.90;;;;;;5090041;28;20467;-50
2023/03/26 00:26:10;;;;;;;4.55;1.25;;;5.60;99.90;;;;;;5089862;28;20062;-49
2023/03/26 00:28:39;;;;;;;;;;;5.50;99.90;;;;;;5089873;28;20488;-48
2023/03/26 00:31:12;;;;;;;2.97;0.70;;;5.50;99.90;;;;;;5090838;28;19920;-47
2023/03/26 00:33:40;;;;;;;1.70;0.68;;;5.50;99.90;;;;;;5082419;28;20484;-48
2023/03/26 00:36:13;;;;;;;2.05;0.77;;;5.40;99.90;;;;;;5072134;28;20048;-48
2023/03/26 00:38:41;;;;;;;2.35;0.82;;;5.50;99.90;;;;;;5058886;28;20033;-48
2023/03/26 00:41:16;;;;;;;1.83;0.80;;;5.50;99.90;;;;;;5071354;28;20048;-47
2023/03/26 00:43:48;;;;;;;2.70;0.80;;;5.50;99.90;;;;;;5067809;22;20171;-52
2023/03/26 00:46:16;;;;;;;3.40;1.15;;;5.50;99.90;;;;;;5011128;28;20077;-52
2023/03/26 00:48:44;;;;;;;2.17;1.10;;;5.50;99.90;;;;;;5026940;28;20545;-52
2023/03/26 00:51:14;;;;;;;5.30;1.77;;;5.50;99.90;;;;;;5029176;28;20041;-56
2023/03/26 00:53:44;;;;;;;3.10;1.55;;;5.60;99.90;;;;;;5028885;28;20091;-52
2023/03/26 00:56:11;;;;;;;3.45;1.30;;;5.60;99.90;;;;;;5026845;28;20042;-56
2023/03/26 00:58:38;;;;;;;2.80;0.80;;;5.70;99.90;;;;;;5029849;28;20092;-55
2023/03/26 01:01:12;;;;;;;5.30;0.82;;;5.70;99.90;;;;;;5029697;28;20125;-51
2023/03/26 01:03:40;;;;;;;4.53;1.40;;;5.70;99.90;;;;;;5029479;28;20160;-50
2023/03/26 01:06:26;;;;;;;3.63;1.20;;;5.80;99.90;;;;;;5029687;28;20030;-50
2023/03/26 01:08:58;;;;;;;5.88;1.50;;;5.80;99.90;;;;;;5027817;28;20148;-52
2023/03/26 01:11:29;;;;;;;3.08;0.93;;;5.90;99.90;;;;;;5025082;28;20049;-51
2023/03/26 01:14:17;;;;;;;1.50;0.60;;;5.90;99.90;;;;;;5010243;28;20052;-51
2023/03/26 01:16:54;;;;;;;1.50;0.60;;;5.90;99.90;;;;;;5021651;28;20525;-55
2023/03/26 01:19:28;;;;;;;2.42;1.10;;;5.90;99.90;;;;;;5021349;28;20049;-51
2023/03/26 01:21:56;;;;;;;3.78;0.80;;;5.90;99.90;;;;;;5026908;28;20076;-54
2023/03/26 01:24:23;;;;;;;1.58;0.70;;;5.90;99.90;;;;;;5029584;28;20104;-52
2023/03/26 01:27:18;;;;;;;0.90;0.50;;;5.90;99.90;;;;;;5023570;28;20038;-55
2023/03/26 01:29:58;;;;;;;0.80;0.40;;;5.80;99.90;;;;;;5024851;28;20540;-51
2023/03/26 01:32:24;;;;;;;2.55;1.00;;;5.70;99.90;;;;;;5024640;28;20050;-51
2023/03/26 01:35:06;;;;;;;2.08;0.80;;;5.70;99.90;;;;;;5025704;28;20052;-53
2023/03/26 01:37:36;;;;;;;4.05;0.52;;;5.60;99.90;;;;;;5028345;28;20068;-56
2023/03/26 01:40:37;;;;;;;2.72;1.10;;;5.60;99.90;;;;;;5028924;28;20065;-53
2023/03/26 01:43:10;;;;;;;8.73;1.27;;;5.50;99.90;;;;;;5033086;28;20593;-54
2023/03/26 01:45:40;;;;;;;2.65;1.42;;;5.40;99.90;;;;;;5029471;28;20104;-55
2023/03/26 01:48:07;;;;;;;1.63;1.00;;;5.40;99.90;;;;;;5032624;28;20136;-55
2023/03/26 01:50:34;;;;;;;2.17;1.60;;;5.40;99.90;;;;;;5030671;28;20061;-51
2023/03/26 01:53:01;;;;;;;3.92;1.40;;;5.40;99.90;;;;;;5033439;28;20506;-52
2023/03/26 01:55:40;;;;;;;4.55;1.65;;;5.40;99.90;;;;;;5027593;28;20045;-50
2023/03/26 01:58:29;;;;;;;3.63;1.98;;;5.50;99.90;;;;;;5014720;28;20505;-50
2023/03/26 02:01:03;;;;;;;4.82;1.73;;;5.50;99.90;;;;;;5030254;28;20045;-53
2023/03/26 02:03:32;;;;;;;3.80;1.77;;;5.50;99.90;;;;;;5032975;28;20037;-53
2023/03/26 02:06:29;;;;;;;4.57;1.40;;;5.40;99.90;;;;;;5031534;28;20047;-52
2023/03/26 02:09:03;;;;;;;3.90;1.38;;;5.40;99.90;;;;;;5027812;28;20512;-51
2023/03/26 02:11:30;;;;;;;4.63;1.45;;;5.30;99.90;;;;;;5024697;28;20498;-53
2023/03/26 02:14:04;;;;;;;3.88;1.08;;;5.30;99.90;;;;;;5029965;28;20549;-55
2023/03/26 02:16:31;;;;;;;3.63;1.38;;;5.30;99.90;;;;;;5028013;28;20038;-50
2023/03/26 02:18:58;;;;;;;1.90;1.00;;;5.30;99.90;;;;;;5027075;28;20516;-52
2023/03/26 02:21:26;;;;;;;2.28;0.85;;;5.30;99.90;;;;;;5028376;28;20115;-50
2023/03/26 02:24:02;;;;;;;3.13;1.13;;;5.40;99.90;;;;;;5031194;28;20188;-55
2023/03/26 02:26:34;;;;;;;2.05;1.00;;;5.40;99.90;;;;;;5030031;28;20041;-52
2023/03/26 02:29:10;;;;;;;3.17;1.25;;;5.50;99.90;;;;;;5031089;28;20454;-51
2023/03/26 02:31:39;;;;;;;1.80;1.00;;;5.50;99.90;;;;;;5024497;28;20568;-51
2023/03/26 02:34:06;;;;;;;1.98;0.80;;;5.50;99.90;;;;;;5029797;28;20041;-53
2023/03/26 02:36:36;;;;;;;4.53;1.35;;;5.50;99.90;;;;;;5047419;28;20053;-51
2023/03/26 02:39:03;;;;;;;1.58;0.75;;;5.60;99.90;;;;;;5033778;28;20096;-52
2023/03/26 02:41:34;;;;;;;2.53;1.05;;;5.60;99.90;;;;;;5031565;28;20072;-56
2023/03/26 02:44:05;;;;;;;2.85;1.42;;;5.70;99.90;;;;;;5024539;28;20518;-55
2023/03/26 02:46:52;;;;;;;3.88;1.40;;;5.70;99.90;;;;;;5032070;28;20045;-53
2023/03/26 02:49:38;;;;;;;3.50;1.38;;;5.80;99.90;;;;;;5025736;28;20418;-54
2023/03/26 02:52:05;;;;;;;2.17;1.20;;;5.80;99.90;;;;;;5027151;28;20046;-51
2023/03/26 02:54:34;;;;;;;4.20;1.23;;;5.80;99.90;;;;;;5011222;28;20050;-52
2023/03/26 02:57:14;;;;;;;6.13;1.35;;;5.80;99.90;;;;;;5018317;28;20129;-55
2023/03/26 02:59:41;;;;;;;4.85;1.55;;;5.80;99.90;;;;;;5031841;28;20072;-50
2023/03/26 03:02:40;;;;;;;;;;;5.80;99.90;;;;;;5015195;28;20682;-50
2023/03/26 03:05:19;;;;;;;2.60;1.58;;;5.70;99.90;;;;;;5032475;28;20346;-56
2023/03/26 03:07:57;;;;;;;3.83;1.55;;;5.70;99.90;;;;;;5027584;28;20130;-50
2023/03/26 03:10:26;;;;;;;3.03;1.77;;;5.60;99.90;;;;;;5025539;28;20037;-51
2023/03/26 03:13:04;;;;;;;3.70;1.92;;;5.60;99.90;;;;;;5029510;28;20510;-50
2023/03/26 03:15:31;;;;;;;3.42;1.65;;;5.60;99.90;;;;;;5027397;28;20136;-54
2023/03/26 03:17:58;;;;;;;5.05;1.80;;;5.70;99.90;;;;;;5032092;28;20475;-51
2023/03/26 03:20:29;;;;;;;3.92;2.03;;;5.70;99.90;;;;;;5028553;28;20124;-52
2023/03/26 03:22:55;;;;;;;7.43;1.67;;;5.70;99.90;;;;;;5024601;28;20540;-53
2023/03/26 03:25:24;;;;;;;7.78;1.92;;;5.70;99.90;;;;;;5028686;28;20066;-52
2023/03/26 03:27:52;;;;;;;3.83;1.70;;;5.70;99.90;;;;;;5032483;28;20033;-50
2023/03/26 03:30:19;;;;;;;4.30;1.25;;;5.70;99.90;;;;;;5028107;28;20124;-54
2023/03/26 03:33:18;;;;;;;1.75;0.90;;;5.60;99.90;;;;;;5018645;28;20600;-53
2023/03/26 03:35:46;;;;;;;1.25;0.73;;;5.40;99.90;;;;;;5042705;28;20184;-50
2023/03/26 03:38:14;;;;;;;2.67;0.88;;;5.40;99.90;;;;;;5043096;28;20056;-52
2023/03/26 03:40:46;;;;;;;1.58;0.70;;;5.40;99.90;;;;;;5046556;28;20037;-52
2023/03/26 03:43:14;;;;;;;1.45;0.70;;;5.50;99.90;;;;;;5030107;28;20037;-52
2023/03/26 03:45:53;;;;;;;1.02;0.60;;;5.50;99.90;;;;;;5029511;28;20053;-50
2023/03/26 03:48:32;;;;;;;1.58;1.00;;;5.50;99.90;;;;;;5024153;28;20128;-51
2023/03/26 03:50:59;;;;;;;3.05;0.98;;;5.50;99.90;;;;;;5027517;28;20068;-52
2023/03/26 03:53:30;;;;;;;2.47;1.20;;;5.50;99.90;;;;;;5026789;28;20041;-54
2023/03/26 03:56:00;;;;;;;2.53;1.58;;;5.60;99.90;;;;;;5024004;28;20405;-50
2023/03/26 03:58:47;;;;;;;3.25;1.30;;;5.60;99.90;;;;;;5025059;28;20071;-54
2023/03/26 04:01:23;;;;;;;4.15;1.60;;;5.60;99.90;;;;;;5026157;28;20437;-51
2023/03/26 04:03:58;;;;;;;3.75;1.80;;;5.70;99.90;;;;;;5019126;28;20076;-51
2023/03/26 04:06:37;;;;;;;3.10;1.60;;;5.70;99.90;;;;;;5030315;28;20037;-50
2023/03/26 04:09:05;;;;;;;2.75;1.65;;;5.70;99.90;;;;;;5023217;28;20046;-53
2023/03/26 04:11:32;;;;;;;3.03;1.70;;;5.70;99.90;;;;;;5023053;28;20132;-51
2023/03/26 04:14:10;;;;;;;5.30;1.50;;;5.70;99.90;;;;;;5043040;28;20045;-52
2023/03/26 04:16:58;;;;;;;3.33;1.50;;;5.70;99.90;;;;;;5010301;28;20069;-51
2023/03/26 04:19:26;;;;;;;1.58;0.93;;;5.60;99.90;;;;;;5020932;28;20315;-54
2023/03/26 04:21:53;;;;;;;4.97;1.33;;;5.60;99.90;;;;;;5029912;28;20140;-50
2023/03/26 04:24:21;;;;;;;4.47;1.33;;;5.60;99.90;;;;;;5025965;28;20042;-54
2023/03/26 04:27:13;;;;;;;3.13;1.00;;;5.60;99.90;;;;;;5009894;28;20148;-51
2023/03/26 04:29:44;;;;;;;6.30;1.60;;;5.50;99.90;;;;;;5043424;28;20050;-52
2023/03/26 04:32:28;;;;;;;6.68;1.45;;;5.50;99.90;;;;;;5027217;28;20293;-51
2023/03/26 04:35:02;;;;;;;5.15;1.65;;;5.50;99.90;;;;;;5040605;28;20616;-53
2023/03/26 04:37:38;;;;;;;3.30;1.83;;;5.50;99.90;;;;;;5044641;28;20045;-51
2023/03/26 04:40:20;;;;;;;4.88;2.90;;;5.50;99.90;;;;;;5028092;28;20057;-52
2023/03/26 04:43:01;;;;;;;12.85;5.20;;;5.60;99.90;;;;;;5028648;28;20046;-54
2023/03/26 04:45:47;;;;;;;11.05;4.68;;;5.50;99.90;;;;;;5030780;28;20472;-54
2023/03/26 04:48:16;;;;;;;8.63;4.20;;;5.50;99.90;;;;;;5045299;28;20093;-52
2023/03/26 04:50:44;;;;;;;4.00;2.22;;;5.50;99.90;;;;;;5024562;28;20108;-51
2023/03/26 04:53:18;;;;;;;3.85;1.63;;;5.50;99.90;;;;;;5028229;28;20502;-53
2023/03/26 04:56:23;;;;;;;3.00;1.40;;;5.40;99.90;;;;;;5029448;28;20049;-50
2023/03/26 04:59:25;;;;;;;2.58;1.40;;;5.40;99.90;;;;;;5007950;28;20053;-50
2023/03/26 05:01:55;;;;;;;5.20;1.42;;;5.50;99.90;;;;;;5026992;28;20083;-52
2023/03/26 05:04:25;;;;;;;4.00;1.42;;;5.50;99.90;;;;;;5028195;28;20046;-52
2023/03/26 05:06:52;;;;;;;2.10;1.38;;;5.60;99.90;;;;;;5026915;28;20525;-50
2023/03/26 05:09:26;;;;;;;4.05;1.75;;;5.50;99.90;;;;;;5025110;28;20128;-50
2023/03/26 05:12:16;;;;;;;4.50;1.58;;;5.60;99.90;;;;;;5028518;28;20042;-52
2023/03/26 05:15:05;;;;;;;5.05;1.50;;;5.60;99.90;;;;;;5045496;28;20046;-52
2023/03/26 05:17:43;;;;;;;3.67;1.98;;;5.60;99.90;;;;;;5032538;28;20068;-50
2023/03/26 05:20:25;;;;;;;3.22;1.98;;;5.70;99.90;;;;;;5027960;28;20065;-51
2023/03/26 05:22:52;;;;;;;4.45;2.10;;;5.70;99.90;;;;;;5033418;28;20042;-53
2023/03/26 05:25:24;;;;;;;3.35;1.83;;;5.70;99.90;;;;;;5028504;28;20495;-51
2023/03/26 05:27:51;;;;;;;3.10;1.20;;;5.70;99.90;;;;;;5033062;28;20042;-50
2023/03/26 05:30:20;;;;;;;1.58;1.05;;;5.70;99.90;;;;;;5031144;28;20042;-51
2023/03/26 05:32:52;;;;;;;3.50;0.55;;;5.70;99.90;;;;;;5026653;28;20116;-53
2023/03/26 05:35:24;;;;;;;5.22;1.00;;;5.60;99.90;;;;;;5028622;28;20046;-50
2023/03/26 05:37:51;;;;;;;6.50;1.75;;;5.70;99.90;;;;;;5012002;28;20066;-52
2023/03/26 05:40:21;;;;;;;6.07;1.02;;;5.60;99.90;;;;;;5017471;28;20521;-51
2023/03/26 05:42:55;;;;;;;1.33;0.63;;;5.70;99.90;;;;;;5031980;28;20597;-52
2023/03/26 05:45:46;;;;;;;1.55;0.60;;;5.70;99.90;;;;;;5029159;28;20405;-52
2023/03/26 05:48:25;;;;;;;4.55;2.72;;;5.70;99.90;;;;;;5030762;28;20051;-52
2023/03/26 05:50:53;;;;;;;;;;;5.70;99.90;;;;;;5028072;28;20052;-51
2023/03/26 05:53:22;;;;;;;7.38;2.83;;;5.80;99.90;;;;;;5029439;28;20028;-50
2023/03/26 05:56:08;;;;;;;7.78;3.78;;;5.80;99.90;;;;;;5030166;28;20068;-51
2023/03/26 05:58:55;;;;;;;6.97;3.80;;;5.90;99.90;;;;;;5012117;28;20065;-51
2023/03/26 06:01:43;;;;;;;5.43;3.60;;;5.90;99.90;;;;;;5029462;28;20127;-54
2023/03/26 06:04:27;;;;;;;9.40;3.22;;;5.90;99.90;;;;;;5027327;28;20056;-51
2023/03/26 06:07:15;;;;;;;7.72;2.70;;;6.00;99.90;;;;;;5032456;28;20073;-54
2023/03/26 06:09:46;;;;;;;2.63;1.10;;;6.00;99.90;;;;;;5027164;28;20434;-51
2023/03/26 06:12:13;;;;;;;1.55;1.00;;;6.10;99.90;;;;;;5014087;28;20069;-53
2023/03/26 06:14:44;;;;;;;2.92;0.90;;;6.10;99.90;;;;;;5022133;28;20042;-51
2023/03/26 06:17:31;;;;;;;2.75;1.10;;;6.20;99.90;;;;;;5032727;28;20048;-52
2023/03/26 06:20:09;;;;;;;3.30;1.17;;;6.20;99.90;;;;;;5044035;28;20046;-51
2023/03/26 06:22:39;;;;;;;5.22;1.30;;;6.30;99.90;;;;;;5046798;28;20091;-52
2023/03/26 06:25:17;;;;;;;3.08;1.30;;;6.30;99.90;;;;;;5031594;28;20057;-50
2023/03/26 06:27:53;;;;;;;7.38;2.10;;;6.40;99.90;;;;;;5028963;28;20046;-51
2023/03/26 06:30:39;;;;;;;11.48;4.68;;;6.40;99.90;;;;;;5033576;28;20048;-54
2023/03/26 06:33:13;;;;;;;8.18;3.80;;;6.40;99.90;;;;;;5031356;28;20038;-51
2023/03/26 06:35:47;;;;;;;7.80;3.33;;;6.40;99.90;;;;;;5031547;28;20052;-50
2023/03/26 06:38:15;;;;;;;7.93;3.45;;;6.50;99.90;;;;;;5029367;28;20045;-55
2023/03/26 06:40:43;;;;;;;4.82;2.95;;;6.60;99.90;;;;;;5029111;28;20074;-51
2023/03/26 06:43:36;;;;;;;12.60;5.03;;;6.70;99.90;;;;;;5060203;22;20040;-53
2023/03/26 06:50:32;;;;;;;6.20;3.28;;;6.70;99.90;;;;;;5090109;28;20043;-50
2023/03/26 06:53:12;;;;;;;5.35;3.20;;;6.50;99.90;;;;;;5100773;28;20142;-51
2023/03/26 06:56:14;;;;;;;5.47;2.33;;;6.60;99.90;;;;;;5045489;28;20187;-50
2023/03/26 06:58:53;;;;;;;6.70;3.35;;;6.60;99.90;;;;;;5084171;28;20419;-48
2023/03/26 07:01:38;;;;;;;6.93;3.55;;;6.60;99.90;;;;;;5088193;28;20044;-50
2023/03/26 07:04:24;;;;;;;8.18;3.40;;;6.70;99.90;;;;;;5083344;28;20523;-51
2023/03/26 07:07:09;;;;;;;5.20;3.10;;;6.80;99.90;;;;;;5083382;28;20047;-50
2023/03/26 07:09:54;;;;;;;6.38;2.90;;;6.80;99.90;;;;;;5092622;28;20055;-51
2023/03/26 07:12:41;;;;;;;4.32;2.67;;;6.90;99.90;;;;;;5087269;28;20093;-53
2023/03/26 07:15:27;;;;;;;3.88;2.15;;;7.00;99.90;;;;;;5092003;28;20182;-50
2023/03/26 07:18:09;;;;;;;3.75;2.45;;;7.10;99.90;;;;;;5090769;28;20154;-52
2023/03/26 07:20:38;;;;;;;5.40;2.38;;;7.20;99.90;;;;;;5082061;28;20062;-50
2023/03/26 07:23:06;;;;;;;5.03;2.85;;;7.30;99.90;;;;;;5091432;28;20048;-50
2023/03/26 07:25:43;;;;;;;4.65;2.60;;;7.40;99.90;;;;;;5089661;28;20036;-49
2023/03/26 07:28:40;;;;;;;6.82;2.47;;;7.50;99.90;;;;;;5087497;28;20056;-51
2023/03/26 07:31:26;;;;;;;8.82;2.90;;;7.60;99.90;;;;;;5090079;28;20076;-51
2023/03/26 07:34:43;;;;;;;7.22;3.10;;;7.80;99.90;;;;;;5086076;28;20467;-51
2023/03/26 07:37:43;;;;;;;4.50;1.95;;;8.00;99.90;;;;;;5090351;28;20101;-51
2023/03/26 07:40:17;;;;;;;4.75;2.30;;;8.00;99.90;;;;;;5086459;28;20056;-51
2023/03/26 07:43:57;;;;;;;3.53;2.10;;;8.00;99.90;;;;;;5077264;28;20121;-50
2023/03/26 07:46:41;;;;;;;4.13;2.33;;;8.20;99.90;;;;;;5089449;28;20040;-51
2023/03/26 07:49:22;;;;;;;8.70;3.75;;;8.40;99.90;;;;;;5088438;28;20528;-50
2023/03/26 07:52:15;;;;;;;4.80;2.70;;;8.50;99.90;;;;;;5084229;28;20054;-51
2023/03/26 07:54:56;;;;;;;5.55;3.30;;;8.70;99.90;;;;;;5086781;28;20032;-50
2023/03/26 07:57:55;;;;;;;7.65;3.75;;;8.60;99.90;;;;;;5083785;28;20043;-51
2023/03/26 08:00:55;;;;;;;5.35;2.80;;;8.60;99.90;;;;;;5087487;28;20081;-51
2023/03/26 08:03:42;;;;;;;6.88;3.55;;;8.80;99.90;;;;;;5078393;28;20048;-51
2023/03/26 08:06:36;;;;;;;7.63;3.90;;;8.80;99.90;;;;;;5078200;28;20047;-50
2023/03/26 08:09:41;;;;;;;8.68;3.00;;;8.60;99.90;;;;;;5086298;28;20047;-51
2023/03/26 08:12:47;;;;;;;5.88;2.30;;;8.80;99.90;;;;;;5086007;28;20063;-50
2023/03/26 08:15:36;;;;;;;7.50;3.30;;;9.00;99.90;;;;;;5098436;28;20040;-51
2023/03/26 08:18:26;;;;;;;5.25;2.30;;;9.10;99.90;;;;;;5081278;28;20520;-50
2023/03/26 08:21:09;;;;;;;4.03;2.05;;;9.30;99.90;;;;;;5087791;28;20036;-52
2023/03/26 08:24:12;;;;;;;5.28;1.80;;;9.50;99.90;;;;;;5088794;28;20102;-50
2023/03/26 08:26:56;;;;;;;4.40;1.77;;;9.40;99.90;;;;;;5081432;28;20036;-51
2023/03/26 08:29:43;;;;;;;5.20;2.30;;;9.50;99.90;;;;;;5082592;28;20043;-54
2023/03/26 08:32:16;;;;;;;3.10;1.92;;;9.60;99.90;;;;;;5084313;28;20123;-50
2023/03/26 08:34:43;;;;;;;5.80;1.80;;;9.70;99.90;;;;;;5088898;28;20138;-52
2023/03/26 08:37:11;;;;;;;4.93;2.55;;;9.80;99.90;;;;;;5089654;28;20591;-50
2023/03/26 08:39:40;;;;;;;;;;;9.70;99.90;;;;;;5090376;28;20044;-50
2023/03/26 08:42:20;;;;;;;;;;;9.50;99.90;;;;;;5089533;28;19971;-52
2023/03/26 08:45:13;;;;;;;5.78;1.65;;;9.60;99.90;;;;;;5088885;28;20014;-51
2023/03/26 08:48:07;;;;;;;6.25;2.00;;;9.70;99.90;;;;;;5058290;28;20048;-50
2023/03/26 08:50:55;;;;;;;5.43;2.60;;;9.90;99.90;;;;;;5090482;28;20089;-51
2023/03/26 08:53:53;;;;;;;3.58;2.00;;;10.00;99.90;;;;;;5089699;28;20036;-51
2023/03/26 08:56:26;;;;;;;3.03;1.77;;;10.40;99.90;;;;;;5080601;28;20553;-52
2023/03/26 08:59:14;;;;;;;4.20;1.48;;;10.90;99.90;;;;;;5088556;28;20500;-48
2023/03/26 09:02:09;;;;;;;3.05;1.48;;;11.20;99.90;;;;;;5086039;28;20115;-50
2023/03/26 09:05:10;;;;;;;1.65;1.10;;;11.40;99.90;;;;;;5086905;28;20043;-53
2023/03/26 09:08:32;;;;;;;2.90;1.23;;;11.50;99.90;;;;;;5087469;28;20120;-50
2023/03/26 09:11:36;;;;;;;3.10;1.52;;;11.60;99.90;;;;;;4972716;28;20054;-50
2023/03/26 09:14:26;;;;;;;4.72;1.63;;;11.30;99.90;;;;;;5089751;28;20507;-50
2023/03/26 09:17:29;;;;;;;3.17;1.48;;;11.20;99.90;;;;;;5088857;28;20475;-50
2023/03/26 09:20:51;;;;;;;2.88;1.30;;;11.00;99.90;;;;;;5003888;28;20494;-54
2023/03/26 09:23:39;;;;;;;1.92;0.95;;;11.00;99.90;;;;;;5039666;28;20090;-52
2023/03/26 09:26:24;;;;;;;3.72;1.27;;;10.90;99.90;;;;;;5072497;28;20128;-50
2023/03/26 09:29:19;;;;;;;1.20;1.00;;;10.80;99.90;;;;;;5088362;28;20435;-50
2023/03/26 09:31:56;;;;;;;4.22;1.35;;;11.00;99.90;;;;;;5078722;28;20040;-51
2023/03/26 09:34:35;;;;;;;3.17;1.13;;;11.20;99.90;;;;;;5087908;28;20542;-51
2023/03/26 09:37:17;;;;;;;1.73;1.45;;;11.20;99.90;;;;;;5081151;28;20396;-52
2023/03/26 09:39:52;;;;;;;2.33;1.02;;;11.10;99.90;;;;;;5071804;28;20111;-50
2023/03/26 09:42:57;;;;;;;3.20;1.05;;;10.90;99.90;;;;;;5091586;28;20039;-52
2023/03/26 09:45:56;;;;;;;2.65;1.10;;;10.80;99.90;;;;;;5081574;28;20536;-52
2023/03/26 09:48:38;;;;;;;4.07;1.13;;;10.70;99.90;;;;;;5094302;28;20547;-50
2023/03/26 09:51:46;;;;;;;4.28;1.25;;;10.60;99.90;;;;;;5097984;28;20040;-50
2023/03/26 09:54:13;;;;;;;1.23;0.80;;;10.60;99.90;;;;;;5073841;28;20043;-50
2023/03/26 09:56:56;;;;;;;4.47;0.82;;;10.70;99.90;;;;;;5083827;28;20415;-50
2023/03/26 09:59:35;;;;;;;4.43;0.98;;;10.50;99.90;;;;;;5076076;28;20035;-50
2023/03/26 10:02:27;;;;;;;3.17;0.80;;;10.50;99.90;;;;;;5085729;28;20063;-50
2023/03/26 10:05:16;;;;;;;2.40;0.90;;;10.50;99.90;;;;;;5090707;28;20715;-50
2023/03/26 10:08:01;;;;;;;2.95;1.20;;;10.50;99.90;;;;;;5091007;28;20040;-49
2023/03/26 10:10:33;;;;;;;3.35;1.10;;;10.50;99.90;;;;;;5084871;28;20094;-50
2023/03/26 10:13:22;;;;;;;4.22;1.00;;;10.50;99.90;;;;;;5102364;28;20099;-50
2023/03/26 10:16:11;;;;;;;5.38;1.00;;;10.50;99.90;;;;;;5082698;28;20044;-50
2023/03/26 10:18:50;;;;;;;3.75;1.08;;;10.40;99.90;;;;;;5085349;28;20036;-50
2023/03/26 10:21:46;;;;;;;3.03;1.02;;;10.30;99.90;;;;;;5100331;28;20127;-50
2023/03/26 10:24:52;;;;;;;2.00;1.08;;;9.90;99.90;;;;;;5101731;28;20072;-49
2023/03/26 10:27:45;;;;;;;3.38;0.95;;;10.10;99.90;;;;;;5094995;28;20148;-50
2023/03/26 10:30:31;;;;;;;3.30;0.90;;;10.20;99.90;;;;;;5086381;28;20055;-50
2023/03/26 10:33:21;;;;;;;2.22;0.70;;;10.20;99.90;;;;;;5088080;28;20044;-51
2023/03/26 10:36:18;;;;;;;1.92;1.05;;;10.30;99.90;;;;;;5093629;28;20047;-51
2023/03/26 10:38:53;;;;;;;2.13;0.95;;;10.50;99.90;;;;;;5095928;28;20131;-49
2023/03/26 10:41:29;;;;;;;2.58;1.00;;;10.50;99.90;;;;;;5090340;28;20070;-51
2023/03/26 10:44:30;;;;;;;6.63;1.30;;;10.50;99.90;;;;;;5100841;28;20063;-52
2023/03/26 10:47:11;;;;;;;4.05;0.70;;;10.60;99.90;;;;;;5089400;28;20060;-51
2023/03/26 10:49:58;;;;;;;2.88;0.90;;;10.60;99.90;;;;;;5088901;28;20412;-50
2023/03/26 10:52:36;;;;;;;2.92;1.00;;;10.60;99.90;;;;;;5096562;28;20504;-51
2023/03/26 10:55:15;;;;;;;4.70;0.77;;;10.70;99.90;;;;;;5092160;28;20089;-53
2023/03/26 10:57:49;;;;;;;5.60;1.10;;;10.80;99.90;;;;;;5092485;28;20040;-51
2023/03/26 11:00:24;;;;;;;3.53;1.20;;;10.70;99.90;;;;;;5106039;28;20085;-51
2023/03/26 11:03:23;;;;;;;4.95;1.30;;;10.70;99.90;;;;;;5088192;28;20461;-50
2023/03/26 11:06:11;;;;;;;2.08;1.25;;;10.70;99.90;;;;;;5071028;28;20054;-51
2023/03/26 11:08:52;;;;;;;2.28;1.30;;;10.70;99.90;;;;;;5100052;28;20064;-50
2023/03/26 11:11:28;;;;;;;3.03;1.10;;;10.90;99.90;;;;;;5094175;28;20503;-52
2023/03/26 11:14:01;;;;;;;3.25;1.10;;;11.10;99.90;;;;;;5092111;28;20048;-50
2023/03/26 11:16:53;;;;;;;4.07;1.38;;;11.10;99.90;;;;;;5097760;28;20051;-53
2023/03/26 11:19:43;;;;;;;1.80;0.90;;;11.30;99.90;;;;;;5101833;28;20070;-49
2023/03/26 11:22:33;;;;;;;3.38;1.00;;;11.50;99.90;;;;;;5087485;28;20071;-50
2023/03/26 11:25:25;;;;;;;2.55;0.98;;;11.70;99.90;;;;;;5095456;28;20530;-50
2023/03/26 11:28:04;;;;;;;1.30;0.85;;;11.80;99.90;;;;;;5098383;28;20051;-51
2023/03/26 11:30:46;;;;;;;4.05;0.70;;;11.90;99.90;;;;;;5092959;28;20041;-50
2023/03/26 11:33:26;;;;;;;3.90;1.35;;;11.90;99.90;;;;;;5094962;28;20043;-50
2023/03/26 11:36:05;;;;;;;2.72;1.15;;;11.80;99.90;;;;;;5095699;28;20097;-50
2023/03/26 11:38:45;;;;;;;6.68;1.00;;;11.80;99.90;;;;;;5097286;28;20114;-50
2023/03/26 11:41:29;;;;;;;4.55;1.20;;;11.70;99.90;;;;;;5089621;28;20082;-51
2023/03/26 11:44:31;;;;;;;2.03;1.13;;;11.60;99.90;;;;;;5103634;28;20031;-51
2023/03/26 11:47:03;;;;;;;1.60;0.90;;;11.60;99.90;;;;;;5099974;28;20131;-49
2023/03/26 11:49:31;;;;;;;1.52;1.08;;;11.60;99.90;;;;;;5085783;28;20085;-51
2023/03/26 11:51:59;;;;;;;1.52;0.70;;;11.70;99.90;;;;;;5097204;28;20082;-54
2023/03/26 11:54:26;;;;;;;1.23;0.88;;;11.70;99.90;;;;;;5090387;28;20036;-50
2023/03/26 11:57:11;;;;;;;2.05;0.93;;;11.80;99.90;;;;;;5087125;28;20516;-50
2023/03/26 11:59:50;;;;;;;6.03;0.98;;;11.60;99.90;;;;;;5088838;28;20062;-51
2023/03/26 12:02:27;;;;;;;1.85;0.77;;;11.90;99.90;;;;;;5089900;28;20067;-50
2023/03/26 12:05:26;;;;;;;4.15;0.93;;;12.20;99.90;;;;;;5092150;28;20061;-50
2023/03/26 12:07:58;;;;;;;3.72;0.90;;;12.60;99.90;;;;;;5079728;28;20060;-53
2023/03/26 12:10:32;;;;;;;3.20;1.08;;;12.80;99.90;;;;;;5091190;28;20071;-50
2023/03/26 12:13:05;;;;;;;2.85;0.93;;;12.90;99.90;;;;;;5087812;28;20142;-51
2023/03/26 12:15:32;;;;;;;5.05;0.90;;;12.80;99.90;;;;;;5087018;28;20036;-50
2023/03/26 12:18:24;;;;;;;2.97;1.30;;;12.80;99.90;;;;;;5090314;28;20416;-54
2023/03/26 12:21:23;;;;;;;3.95;1.10;;;13.00;99.90;;;;;;5088264;28;20487;-51
2023/03/26 12:24:03;;;;;;;2.53;1.10;;;13.10;99.90;;;;;;5049134;28;20048;-51
2023/03/26 12:26:40;;;;;;;3.95;1.20;;;13.20;99.90;;;;;;5083516;28;20561;-52
2023/03/26 12:29:12;;;;;;;4.20;1.17;;;13.30;99.90;;;;;;5093688;28;20469;-51
2023/03/26 12:32:08;;;;;;;7.93;1.52;;;13.40;99.90;;;;;;5093146;28;20032;-51
2023/03/26 12:34:37;;;;;;;2.75;1.30;;;13.40;99.90;;;;;;5084312;28;20070;-50
2023/03/26 12:37:06;;;;;;;2.10;1.27;;;13.00;99.90;;;;;;5089373;28;20042;-54
2023/03/26 12:39:35;;;;;;;2.13;1.15;;;12.70;99.90;;;;;;5086957;28;20089;-51
2023/03/26 12:42:41;;;;;;;1.65;0.82;;;12.60;99.90;;;;;;5088115;28;20071;-51
2023/03/26 12:45:30;;;;;;;4.82;1.20;;;12.70;99.90;;;;;;5090338;28;20127;-52
2023/03/26 12:47:59;;;;;;;2.35;0.90;;;12.50;99.90;;;;;;5088819;28;20060;-52
2023/03/26 12:51:07;;;;;;;8.13;1.38;;;12.50;99.90;;;;;;5089437;28;20048;-50
2023/03/26 12:53:40;;;;;;;3.70;0.77;;;12.30;99.90;;;;;;5084928;28;20071;-51
2023/03/26 12:56:22;;;;;;;2.28;0.80;;;12.10;99.90;;;;;;5087757;28;20044;-53
2023/03/26 12:59:24;;;;;;;6.38;1.10;;;12.00;99.90;;;;;;5088617;28;20097;-50
2023/03/26 13:02:27;;;;;;;1.25;0.70;;;12.00;99.90;;;;;;5085180;28;20079;-53
2023/03/26 13:05:05;;;;;;;1.85;0.90;;;12.30;99.90;;;;;;5088240;28;20047;-50
2023/03/26 13:07:46;;;;;;;;;;;12.40;99.90;;;;;;5086928;28;20040;-51
2023/03/26 13:11:40;;;;;;;2.00;0.88;;;12.40;99.90;;;;;;5080913;22;20039;-52
2023/03/26 13:14:49;;;;;;;2.58;1.20;;;12.20;99.90;;;;;;5065613;28;20035;-48
2023/03/26 13:17:34;;;;;;;1.83;0.95;;;12.00;99.90;;;;;;5048322;28;20064;-50
2023/03/26 13:20:12;;;;;;;4.25;1.20;;;11.80;99.90;;;;;;5062208;28;20051;-48
2023/03/26 13:23:02;;;;;;;2.70;1.20;;;11.70;99.90;;;;;;5055269;28;20119;-51
2023/03/26 13:25:53;;;;;;;1.98;1.00;;;11.50;99.90;;;;;;5063216;28;20040;-48
2023/03/26 13:28:26;;;;;;;0.73;0.60;;;11.30;99.90;;;;;;5049658;28;20075;-49
2023/03/26 13:30:59;;;;;;;3.60;0.98;;;11.20;99.90;;;;;;5051944;28;20133;-48
2023/03/26 13:33:37;;;;;;;1.45;0.77;;;11.10;99.90;;;;;;5061584;28;20044;-48
2023/03/26 13:36:07;;;;;;;3.13;1.00;;;11.00;99.90;;;;;;5059429;28;20455;-48
2023/03/26 13:39:03;;;;;;;1.70;0.68;;;10.90;99.90;;;;;;5073918;28;20044;-48
2023/03/26 13:42:07;;;;;;;1.75;0.70;;;10.80;99.90;;;;;;5072016;28;20049;-49
2023/03/26 13:44:46;;;;;;;3.13;1.00;;;10.70;99.90;;;;;;5068843;28;20119;-48
2023/03/26 13:47:18;;;;;;;3.47;1.00;;;10.60;99.90;;;;;;5073256;28;20035;-50
2023/03/26 13:49:53;;;;;;;3.15;0.90;;;10.70;99.90;;;;;;5072872;28;20098;-49
2023/03/26 13:52:34;;;;;;;2.20;0.73;;;10.70;99.90;;;;;;5069096;28;20119;-51
2023/03/26 13:55:18;;;;;;;1.75;0.90;;;10.80;99.90;;;;;;5045141;28;20068;-49
2023/03/26 13:58:03;;;;;;;2.67;0.85;;;10.70;99.90;;;;;;5073819;28;20048;-48
2023/03/26 14:00:46;;;;;;;2.53;0.68;;;10.70;99.90;;;;;;5057249;28;20049;-49
2023/03/26 14:03:19;;;;;;;1.35;0.88;;;10.60;99.90;;;;;;5053525;28;20084;-51
2023/03/26 14:05:51;;;;;;;2.38;0.85;;;10.60;99.90;;;;;;5060709;28;20790;-49
2023/03/26 14:08:24;;;;;;;2.22;0.98;;;10.60;99.90;;;;;;5057900;28;20713;-53